createdAt,value
2022-09-13T00:00:18.875Z,13.10
2022-09-13T00:01:21.418Z,13.10
2022-09-13T00:02:25.833Z,13.10
2022-09-13T00:03:28.623Z,13.00
2022-09-13T00:04:31.463Z,13.00
2022-09-13T00:05:34.779Z,13.00
2022-09-13T00:06:37.981Z,13.00
2022-09-13T00:07:40.284Z,13.00
2022-09-13T00:08:43.591Z,13.00
2022-09-13T00:09:45.729Z,13.00
2022-09-13T00:10:49.551Z,13.00
2022-09-13T00:11:52.227Z,13.00
2022-09-13T00:12:55.829Z,13.00
2022-09-13T00:13:59.309Z,13.00
2022-09-13T00:15:01.479Z,13.00
2022-09-13T00:16:05.304Z,13.00
2022-09-13T00:17:07.881Z,13.00
2022-09-13T00:18:12.234Z,13.00
2022-09-13T00:19:14.407Z,13.00
2022-09-13T00:20:17.434Z,13.00
2022-09-13T00:21:21.383Z,13.00
2022-09-13T00:22:24.461Z,13.00
2022-09-13T00:23:26.469Z,13.00
2022-09-13T00:24:29.352Z,13.00
2022-09-13T00:25:31.705Z,13.00
2022-09-13T00:26:34.566Z,13.00
2022-09-13T00:27:37.347Z,13.00
2022-09-13T00:28:40.973Z,13.00
2022-09-13T00:29:42.885Z,13.00
2022-09-13T00:30:46.263Z,13.00
2022-09-13T00:31:48.946Z,12.90
2022-09-13T00:32:51.925Z,13.00
2022-09-13T00:33:55.951Z,12.90
2022-09-13T00:34:59.057Z,12.90
2022-09-13T00:36:04.602Z,13.00
2022-09-13T00:37:08.989Z,12.90
2022-09-13T00:38:10.951Z,12.90
2022-09-13T00:39:13.883Z,12.90
2022-09-13T00:40:16.109Z,12.90
2022-09-13T00:41:21.076Z,12.90
2022-09-13T00:42:25.595Z,12.90
2022-09-13T00:43:47.969Z,12.90
2022-09-13T00:44:55.328Z,12.90
2022-09-13T00:45:58.419Z,12.90
2022-09-13T00:47:01.500Z,12.90
2022-09-13T00:48:09.353Z,12.90
2022-09-13T00:49:19.406Z,12.90
2022-09-13T00:50:24.173Z,12.90
2022-09-13T00:51:27.787Z,12.90
2022-09-13T00:52:31.985Z,12.90
2022-09-13T00:53:40.267Z,12.90
2022-09-13T00:54:48.895Z,12.90
2022-09-13T00:55:56.125Z,13.00
2022-09-13T00:57:02.195Z,13.00
2022-09-13T00:58:09.441Z,13.00
2022-09-13T00:59:15.911Z,13.00
2022-09-13T01:00:20.917Z,13.00
2022-09-13T01:01:29.513Z,13.00
2022-09-13T01:02:33.301Z,12.90
2022-09-13T01:03:35.744Z,12.90
2022-09-13T01:04:40.141Z,12.90
2022-09-13T01:05:46.374Z,12.90
2022-09-13T01:06:51.249Z,12.90
2022-09-13T01:07:53.798Z,12.90
2022-09-13T01:08:59.028Z,12.90
2022-09-13T01:10:07.611Z,12.90
2022-09-13T01:11:14.120Z,12.80
2022-09-13T01:12:31.911Z,12.90
2022-09-13T01:13:36.882Z,12.90
2022-09-13T01:14:39.522Z,12.80
2022-09-13T01:15:42.903Z,12.80
2022-09-13T01:16:47.891Z,12.80
2022-09-13T01:17:55.497Z,12.80
2022-09-13T01:18:58.097Z,12.80
2022-09-13T01:20:03.934Z,12.80
2022-09-13T01:21:33.686Z,12.80
2022-09-13T01:22:54.582Z,12.80
2022-09-13T01:24:23.675Z,12.80
2022-09-13T01:26:20.430Z,12.80
2022-09-13T01:28:02.681Z,12.80
2022-09-13T01:29:14.658Z,12.80
2022-09-13T01:30:20.603Z,12.70
2022-09-13T01:31:28.705Z,12.70
2022-09-13T01:32:41.199Z,12.70
2022-09-13T01:33:57.867Z,12.70
2022-09-13T01:35:11.102Z,12.70
2022-09-13T01:36:32.893Z,12.60
2022-09-13T01:37:47.947Z,12.70
2022-09-13T01:38:57.932Z,12.70
2022-09-13T01:40:10.671Z,12.70
2022-09-13T01:41:29.122Z,12.60
2022-09-13T01:42:47.169Z,12.70
2022-09-13T01:43:56.242Z,12.60
2022-09-13T01:45:07.611Z,12.60
2022-09-13T01:46:16.746Z,12.60
2022-09-13T01:47:28.149Z,12.60
2022-09-13T01:48:37.088Z,12.60
2022-09-13T01:49:47.353Z,12.60
2022-09-13T01:50:58.972Z,12.60
2022-09-13T01:52:05.426Z,12.60
2022-09-13T01:53:17.668Z,12.60
2022-09-13T01:54:26.340Z,12.60
2022-09-13T01:55:35.642Z,12.50
2022-09-13T01:56:42.904Z,12.50
2022-09-13T01:57:52.614Z,12.50
2022-09-13T01:59:01.295Z,12.50
2022-09-13T02:00:07.726Z,12.50
2022-09-13T02:01:19.641Z,12.50
2022-09-13T02:02:28.290Z,12.50
2022-09-13T02:03:37.967Z,12.60
2022-09-13T02:04:44.018Z,12.60
2022-09-13T02:05:53.283Z,12.60
2022-09-13T02:07:02.219Z,12.50
2022-09-13T02:08:09.918Z,12.60
2022-09-13T02:09:21.206Z,12.50
2022-09-13T02:10:28.747Z,12.50
2022-09-13T02:11:33.434Z,12.50
2022-09-13T02:12:39.043Z,12.50
2022-09-13T02:13:48.854Z,12.50
2022-09-13T02:14:54.883Z,12.50
2022-09-13T02:16:02.725Z,12.50
2022-09-13T02:17:10.550Z,12.50
2022-09-13T02:18:18.396Z,12.50
2022-09-13T02:19:25.662Z,12.50
2022-09-13T02:20:32.589Z,12.50
2022-09-13T02:21:39.202Z,12.50
2022-09-13T02:22:47.214Z,12.50
2022-09-13T02:23:54.222Z,12.50
2022-09-13T02:25:02.817Z,12.40
2022-09-13T02:26:07.685Z,12.40
2022-09-13T02:27:13.829Z,12.40
2022-09-13T02:28:21.837Z,12.40
2022-09-13T02:29:28.982Z,12.40
2022-09-13T02:30:33.836Z,12.40
2022-09-13T02:31:42.833Z,12.40
2022-09-13T02:32:51.733Z,12.40
2022-09-13T02:34:00.111Z,12.30
2022-09-13T02:35:07.125Z,12.40
2022-09-13T02:36:14.098Z,12.40
2022-09-13T02:37:16.203Z,12.40
2022-09-13T02:38:23.889Z,12.30
2022-09-13T02:39:29.579Z,12.30
2022-09-13T02:40:50.275Z,12.30
2022-09-13T02:41:56.701Z,12.40
2022-09-13T02:43:06.116Z,12.40
2022-09-13T02:44:13.114Z,12.30
2022-09-13T02:45:16.419Z,12.30
2022-09-13T02:46:29.042Z,12.30
2022-09-13T02:47:42.301Z,12.30
2022-09-13T02:48:57.022Z,12.30
2022-09-13T02:50:10.106Z,12.30
2022-09-13T02:51:20.367Z,12.30
2022-09-13T02:52:36.601Z,12.30
2022-09-13T02:53:43.200Z,12.30
2022-09-13T02:54:54.987Z,12.30
2022-09-13T02:56:07.787Z,12.30
2022-09-13T02:57:15.382Z,12.40
2022-09-13T02:58:27.353Z,12.40
2022-09-13T02:59:29.460Z,12.40
2022-09-13T03:00:32.569Z,12.40
2022-09-13T03:01:37.323Z,12.40
2022-09-13T03:02:42.510Z,12.40
2022-09-13T03:03:44.880Z,12.40
2022-09-13T03:04:51.258Z,12.50
2022-09-13T03:05:53.495Z,12.50
2022-09-13T03:06:57.003Z,12.50
2022-09-13T03:08:00.358Z,12.50
2022-09-13T03:09:06.697Z,12.50
2022-09-13T03:10:13.765Z,12.50
2022-09-13T03:11:23.360Z,12.50
2022-09-13T03:12:42.659Z,12.50
2022-09-13T03:14:18.276Z,12.50
2022-09-13T03:15:32.925Z,12.50
2022-09-13T03:16:45.873Z,12.50
2022-09-13T03:17:55.676Z,12.50
2022-09-13T03:19:18.161Z,12.50
2022-09-13T03:20:30.406Z,12.50
2022-09-13T03:21:52.950Z,12.50
2022-09-13T03:23:23.651Z,12.60
2022-09-13T03:24:31.370Z,12.50
2022-09-13T03:25:47.184Z,12.50
2022-09-13T03:27:01.627Z,12.60
2022-09-13T03:28:15.476Z,12.50
2022-09-13T03:29:31.663Z,12.60
2022-09-13T03:30:36.958Z,12.60
2022-09-13T03:31:50.184Z,12.60
2022-09-13T03:32:59.768Z,12.60
2022-09-13T03:34:11.486Z,12.60
2022-09-13T03:35:23.177Z,12.60
2022-09-13T03:36:34.623Z,12.60
2022-09-13T03:37:45.213Z,12.60
2022-09-13T03:38:57.291Z,12.60
2022-09-13T03:40:07.325Z,12.60
2022-09-13T03:41:15.175Z,12.60
2022-09-13T03:42:22.364Z,12.60
2022-09-13T03:43:30.649Z,12.50
2022-09-13T03:44:34.490Z,12.50
2022-09-13T03:45:50.397Z,12.50
2022-09-13T03:46:58.059Z,12.50
2022-09-13T03:48:02.214Z,12.50
2022-09-13T03:49:06.947Z,12.50
2022-09-13T03:50:11.536Z,12.50
2022-09-13T03:51:14.439Z,12.40
2022-09-13T03:52:19.668Z,12.50
2022-09-13T03:53:25.428Z,12.40
2022-09-13T03:54:32.478Z,12.40
2022-09-13T03:55:38.425Z,12.40
2022-09-13T03:56:41.253Z,12.40
2022-09-13T03:57:43.286Z,12.40
2022-09-13T03:58:47.033Z,12.40
2022-09-13T03:59:50.465Z,12.40
2022-09-13T04:00:54.931Z,12.40
2022-09-13T04:01:57.221Z,12.30
2022-09-13T04:03:00.504Z,12.40
2022-09-13T04:04:02.866Z,12.40
2022-09-13T04:05:06.795Z,12.40
2022-09-13T04:06:09.119Z,12.40
2022-09-13T04:07:14.332Z,12.40
2022-09-13T04:08:17.638Z,12.40
2022-09-13T04:09:20.478Z,12.40
2022-09-13T04:10:24.247Z,12.40
2022-09-13T04:11:27.099Z,12.40
2022-09-13T04:12:31.121Z,12.40
2022-09-13T04:13:34.108Z,12.40
2022-09-13T04:14:36.155Z,12.40
2022-09-13T04:15:39.057Z,12.40
2022-09-13T04:16:41.172Z,12.50
2022-09-13T04:17:44.239Z,12.40
2022-09-13T04:18:46.690Z,12.50
2022-09-13T04:19:49.638Z,12.50
2022-09-13T04:20:55.454Z,12.50
2022-09-13T04:21:58.495Z,12.50
2022-09-13T04:23:00.606Z,12.50
2022-09-13T04:24:05.359Z,12.50
2022-09-13T04:25:08.180Z,12.50
2022-09-13T04:26:11.180Z,12.60
2022-09-13T04:27:13.748Z,12.60
2022-09-13T04:28:18.506Z,12.60
2022-09-13T04:29:21.889Z,12.60
2022-09-13T04:30:25.276Z,12.60
2022-09-13T04:31:27.284Z,12.60
2022-09-13T04:32:30.748Z,12.60
2022-09-13T04:33:32.691Z,12.60
2022-09-13T04:34:38.023Z,12.60
2022-09-13T04:35:40.886Z,12.70
2022-09-13T04:36:43.833Z,12.70
2022-09-13T04:37:46.002Z,12.70
2022-09-13T04:38:49.199Z,12.60
2022-09-13T04:39:53.655Z,12.70
2022-09-13T04:40:57.499Z,12.70
2022-09-13T04:41:59.616Z,12.70
2022-09-13T04:43:03.122Z,12.70
2022-09-13T04:44:05.094Z,12.70
2022-09-13T04:45:09.440Z,12.70
2022-09-13T04:46:11.470Z,12.70
2022-09-13T04:47:14.510Z,12.70
2022-09-13T04:48:17.507Z,12.70
2022-09-13T04:49:21.887Z,12.70
2022-09-13T04:50:25.693Z,12.70
2022-09-13T04:51:28.717Z,12.70
2022-09-13T04:52:30.622Z,12.70
2022-09-13T04:53:33.917Z,12.80
2022-09-13T04:54:36.957Z,12.80
2022-09-13T04:55:40.793Z,12.70
2022-09-13T04:56:44.022Z,12.70
2022-09-13T04:57:46.074Z,12.80
2022-09-13T04:58:48.983Z,12.80
2022-09-13T04:59:51.927Z,12.80
2022-09-13T05:00:56.755Z,12.80
2022-09-13T05:02:02.382Z,12.80
2022-09-13T05:03:04.960Z,12.80
2022-09-13T05:04:09.306Z,12.80
2022-09-13T05:05:11.398Z,12.80
2022-09-13T05:06:17.970Z,12.80
2022-09-13T05:07:22.667Z,12.80
2022-09-13T05:08:24.615Z,12.80
2022-09-13T05:09:27.822Z,12.90
2022-09-13T05:10:29.803Z,12.90
2022-09-13T05:11:36.221Z,12.90
2022-09-13T05:12:38.256Z,12.90
2022-09-13T05:13:41.890Z,12.90
2022-09-13T05:14:44.002Z,12.90
2022-09-13T05:15:48.663Z,13.00
2022-09-13T05:16:51.594Z,13.00
2022-09-13T05:17:55.722Z,13.10
2022-09-13T05:19:06.706Z,13.10
2022-09-13T05:20:09.649Z,13.10
2022-09-13T05:21:12.678Z,13.10
2022-09-13T05:22:14.889Z,13.10
2022-09-13T05:23:18.270Z,13.10
2022-09-13T05:24:20.223Z,13.20
2022-09-13T05:25:26.087Z,13.10
2022-09-13T05:26:31.204Z,13.20
2022-09-13T05:27:35.609Z,13.20
2022-09-13T05:28:38.151Z,13.20
2022-09-13T05:29:41.138Z,13.20
2022-09-13T05:30:43.146Z,13.20
2022-09-13T05:31:46.385Z,13.30
2022-09-13T05:32:48.645Z,13.30
2022-09-13T05:33:55.353Z,13.40
2022-09-13T05:34:57.744Z,13.40
2022-09-13T05:36:05.605Z,13.40
2022-09-13T05:37:07.899Z,13.50
2022-09-13T05:38:10.797Z,13.50
2022-09-13T05:39:44.040Z,13.50
2022-09-13T05:40:37.696Z,13.60
2022-09-13T05:41:39.784Z,13.60
2022-09-13T05:42:48.258Z,13.70
2022-09-13T05:43:56.034Z,13.70
2022-09-13T05:45:01.767Z,13.70
2022-09-13T05:46:07.027Z,13.70
2022-09-13T05:47:15.963Z,13.80
2022-09-13T05:48:18.163Z,13.80
2022-09-13T05:49:22.330Z,13.80
2022-09-13T05:50:56.017Z,13.90
2022-09-13T05:51:47.259Z,13.90
2022-09-13T05:52:52.253Z,13.90
2022-09-13T05:53:56.033Z,13.90
2022-09-13T05:54:58.077Z,13.90
2022-09-13T05:56:01.205Z,13.90
2022-09-13T05:57:04.487Z,13.90
2022-09-13T05:58:07.821Z,13.90
2022-09-13T05:59:13.553Z,13.90
2022-09-13T06:00:18.541Z,13.90
2022-09-13T06:01:23.942Z,13.90
2022-09-13T06:02:25.956Z,14.00
2022-09-13T06:03:29.068Z,13.90
2022-09-13T06:04:32.031Z,13.90
2022-09-13T06:05:34.354Z,13.90
2022-09-13T06:06:37.364Z,13.90
2022-09-13T06:07:41.427Z,13.90
2022-09-13T06:08:44.560Z,14.00
2022-09-13T06:09:46.575Z,14.00
2022-09-13T06:10:55.863Z,14.00
2022-09-13T06:11:57.860Z,13.90
2022-09-13T06:13:00.884Z,13.90
2022-09-13T06:14:04.306Z,13.90
2022-09-13T06:15:09.158Z,13.80
2022-09-13T06:16:13.961Z,13.90
2022-09-13T06:17:16.151Z,13.90
2022-09-13T06:18:19.313Z,13.90
2022-09-13T06:19:22.245Z,13.80
2022-09-13T06:20:24.319Z,13.80
2022-09-13T06:21:29.268Z,13.80
2022-09-13T06:22:33.312Z,13.80
2022-09-13T06:23:37.089Z,13.80
2022-09-13T06:24:39.162Z,13.80
2022-09-13T06:25:42.443Z,13.80
2022-09-13T06:26:44.544Z,13.80
2022-09-13T06:27:50.036Z,13.80
2022-09-13T06:28:55.497Z,13.80
2022-09-13T06:30:02.408Z,13.80
2022-09-13T06:31:09.875Z,13.80
2022-09-13T06:32:12.833Z,13.80
2022-09-13T06:33:14.851Z,13.80
2022-09-13T06:34:17.949Z,13.80
2022-09-13T06:35:19.985Z,13.80
2022-09-13T06:36:23.050Z,13.80
2022-09-13T06:37:24.997Z,13.80
2022-09-13T06:38:28.035Z,13.70
2022-09-13T06:39:32.151Z,13.70
2022-09-13T06:40:35.129Z,13.80
2022-09-13T06:41:39.683Z,13.90
2022-09-13T06:42:41.695Z,13.90
2022-09-13T06:43:44.653Z,13.90
2022-09-13T06:44:47.997Z,13.90
2022-09-13T06:45:53.987Z,13.90
2022-09-13T06:46:56.140Z,13.80
2022-09-13T06:47:59.688Z,13.80
2022-09-13T06:49:03.548Z,13.80
2022-09-13T06:50:07.994Z,13.70
2022-09-13T06:51:12.298Z,13.70
2022-09-13T06:52:15.203Z,13.70
2022-09-13T06:53:17.238Z,13.70
2022-09-13T06:54:20.255Z,13.70
2022-09-13T06:55:22.186Z,13.80
2022-09-13T06:56:26.378Z,13.80
2022-09-13T06:57:30.733Z,13.80
2022-09-13T06:58:35.097Z,13.90
2022-09-13T06:59:37.011Z,14.00
2022-09-13T07:00:39.932Z,14.00
2022-09-13T07:01:45.082Z,14.00
2022-09-13T07:02:52.635Z,14.10
2022-09-13T07:03:57.826Z,14.10
2022-09-13T07:05:00.814Z,14.10
2022-09-13T07:06:07.747Z,14.10
2022-09-13T07:07:11.109Z,14.10
2022-09-13T07:08:14.006Z,14.10
2022-09-13T07:09:18.894Z,14.20
2022-09-13T07:10:25.578Z,14.20
2022-09-13T07:11:34.529Z,14.30
2022-09-13T07:12:36.651Z,14.40
2022-09-13T07:13:40.114Z,14.40
2022-09-13T07:14:43.235Z,14.40
2022-09-13T07:15:45.314Z,14.40
2022-09-13T07:16:51.667Z,14.40
2022-09-13T07:17:54.130Z,14.50
2022-09-13T07:18:58.712Z,14.50
2022-09-13T07:20:01.134Z,14.50
2022-09-13T07:21:06.071Z,14.60
2022-09-13T07:22:08.246Z,14.60
2022-09-13T07:23:15.128Z,14.60
2022-09-13T07:24:18.729Z,14.70
2022-09-13T07:25:20.654Z,14.70
2022-09-13T07:26:24.467Z,14.90
2022-09-13T07:27:26.451Z,14.90
2022-09-13T07:28:35.211Z,15.00
2022-09-13T07:29:38.412Z,15.10
2022-09-13T07:30:40.718Z,15.20
2022-09-13T07:31:45.857Z,15.20
2022-09-13T07:32:50.163Z,15.30
2022-09-13T07:33:55.461Z,15.30
2022-09-13T07:34:58.415Z,15.30
2022-09-13T07:36:02.286Z,15.30
2022-09-13T07:37:05.191Z,15.30
2022-09-13T07:38:07.280Z,15.40
2022-09-13T07:39:14.901Z,15.40
2022-09-13T07:40:18.487Z,15.40
2022-09-13T07:41:23.471Z,15.40
2022-09-13T07:42:25.559Z,15.30
2022-09-13T07:43:28.941Z,15.30
2022-09-13T07:44:31.866Z,15.30
2022-09-13T07:45:34.387Z,15.30
2022-09-13T07:46:39.879Z,15.30
2022-09-13T07:47:43.587Z,15.30
2022-09-13T07:48:55.749Z,15.30
2022-09-13T07:49:58.724Z,15.30
2022-09-13T07:51:02.651Z,15.30
2022-09-13T07:52:05.752Z,15.30
2022-09-13T07:53:07.976Z,15.30
2022-09-13T07:54:13.652Z,15.40
2022-09-13T07:55:16.033Z,15.30
2022-09-13T07:56:20.671Z,15.40
2022-09-13T07:57:22.704Z,15.40
2022-09-13T07:58:25.721Z,15.40
2022-09-13T07:59:30.326Z,15.40
2022-09-13T08:00:32.841Z,15.40
2022-09-13T08:01:37.883Z,15.50
2022-09-13T08:02:40.048Z,15.50
2022-09-13T08:03:43.243Z,15.60
2022-09-13T08:04:47.633Z,15.50
2022-09-13T08:05:49.603Z,15.60
2022-09-13T08:06:52.577Z,15.70
2022-09-13T08:07:54.596Z,15.70
2022-09-13T08:08:57.825Z,15.70
2022-09-13T08:09:59.850Z,15.70
2022-09-13T08:11:04.603Z,15.70
2022-09-13T08:12:09.067Z,15.80
2022-09-13T08:13:11.136Z,15.80
2022-09-13T08:14:16.369Z,15.80
2022-09-13T08:15:18.499Z,15.90
2022-09-13T08:16:23.352Z,15.90
2022-09-13T08:17:26.065Z,16.00
2022-09-13T08:18:29.266Z,16.10
2022-09-13T08:19:31.825Z,16.10
2022-09-13T08:20:38.754Z,16.20
2022-09-13T08:21:45.705Z,16.30
2022-09-13T08:22:47.838Z,16.30
2022-09-13T08:23:51.017Z,16.30
2022-09-13T08:24:53.119Z,16.40
2022-09-13T08:26:03.521Z,16.40
2022-09-13T08:27:06.691Z,16.50
2022-09-13T08:28:11.821Z,16.50
2022-09-13T08:29:16.525Z,16.50
2022-09-13T08:30:19.638Z,16.50
2022-09-13T08:31:23.047Z,16.60
2022-09-13T08:32:26.302Z,16.60
2022-09-13T08:33:28.563Z,16.60
2022-09-13T08:34:32.499Z,16.70
2022-09-13T08:35:35.436Z,16.70
2022-09-13T08:36:41.229Z,16.70
2022-09-13T08:37:43.681Z,16.70
2022-09-13T08:38:48.230Z,16.80
2022-09-13T08:39:51.508Z,16.90
2022-09-13T08:40:56.843Z,17.00
2022-09-13T08:42:19.497Z,17.10
2022-09-13T08:43:29.545Z,17.20
2022-09-13T08:44:36.251Z,17.20
2022-09-13T08:45:39.732Z,17.30
2022-09-13T08:46:45.831Z,17.30
2022-09-13T08:47:54.595Z,17.30
2022-09-13T08:49:00.926Z,17.40
2022-09-13T08:50:13.828Z,17.40
2022-09-13T08:51:28.491Z,17.40
2022-09-13T08:52:36.692Z,17.40
2022-09-13T08:53:45.884Z,17.50
2022-09-13T08:54:49.995Z,17.50
2022-09-13T08:56:01.084Z,17.60
2022-09-13T08:57:14.049Z,17.60
2022-09-13T08:58:44.231Z,17.70
2022-09-13T08:59:56.316Z,17.80
2022-09-13T09:01:07.376Z,17.70
2022-09-13T09:02:30.733Z,17.70
2022-09-13T09:03:45.137Z,17.80
2022-09-13T09:04:55.614Z,17.80
2022-09-13T09:05:57.580Z,17.90
2022-09-13T09:07:06.159Z,17.80
2022-09-13T09:08:17.351Z,17.90
2022-09-13T09:09:21.608Z,17.90
2022-09-13T09:10:29.071Z,18.00
2022-09-13T09:11:37.667Z,18.10
2022-09-13T09:12:44.591Z,18.20
2022-09-13T09:13:54.078Z,18.30
2022-09-13T09:15:04.126Z,18.40
2022-09-13T09:16:15.258Z,18.50
2022-09-13T09:17:23.863Z,18.60
2022-09-13T09:18:31.091Z,18.70
2022-09-13T09:19:37.866Z,18.70
2022-09-13T09:20:43.609Z,18.70
2022-09-13T09:21:48.938Z,18.70
2022-09-13T09:22:54.897Z,18.70
2022-09-13T09:24:02.439Z,18.80
2022-09-13T09:25:06.676Z,18.90
2022-09-13T09:26:17.375Z,18.90
2022-09-13T09:27:21.565Z,18.90
2022-09-13T09:28:26.886Z,18.90
2022-09-13T09:29:32.763Z,19.00
2022-09-13T09:30:43.517Z,19.00
2022-09-13T09:31:55.670Z,19.10
2022-09-13T09:33:20.544Z,19.10
2022-09-13T09:34:42.527Z,19.20
2022-09-13T09:35:55.611Z,19.20
2022-09-13T09:37:06.416Z,19.20
2022-09-13T09:38:27.779Z,19.30
2022-09-13T09:39:38.967Z,19.20
2022-09-13T09:40:41.067Z,19.30
2022-09-13T09:41:45.383Z,19.40
2022-09-13T09:42:49.154Z,19.40
2022-09-13T09:43:57.773Z,19.60
2022-09-13T09:45:05.588Z,19.70
2022-09-13T09:46:10.530Z,19.90
2022-09-13T09:47:17.086Z,19.90
2022-09-13T09:48:23.165Z,19.90
2022-09-13T09:49:51.845Z,20.00
2022-09-13T09:50:59.254Z,19.90
2022-09-13T09:52:06.527Z,19.80
2022-09-13T09:53:14.743Z,19.80
2022-09-13T09:54:17.614Z,19.70
2022-09-13T09:55:28.674Z,19.80
2022-09-13T09:56:32.878Z,19.70
2022-09-13T09:57:53.743Z,19.70
2022-09-13T09:58:57.416Z,19.80
2022-09-13T10:00:12.181Z,19.80
2022-09-13T10:01:20.545Z,19.90
2022-09-13T10:02:23.753Z,19.90
2022-09-13T10:03:29.977Z,19.90
2022-09-13T10:04:33.173Z,19.90
2022-09-13T10:05:35.811Z,20.00
2022-09-13T10:06:41.162Z,20.00
2022-09-13T10:07:44.515Z,20.10
2022-09-13T10:08:57.714Z,20.10
2022-09-13T10:10:04.103Z,20.20
2022-09-13T10:11:10.346Z,20.30
2022-09-13T10:12:27.701Z,20.30
2022-09-13T10:13:32.368Z,20.50
2022-09-13T10:14:38.179Z,20.60
2022-09-13T10:15:54.400Z,20.60
2022-09-13T10:17:05.188Z,20.50
2022-09-13T10:18:42.436Z,20.60
2022-09-13T10:19:39.621Z,20.60
2022-09-13T10:21:34.013Z,20.60
2022-09-13T10:22:37.546Z,20.70
2022-09-13T10:23:40.485Z,20.70
2022-09-13T10:24:42.518Z,20.70
2022-09-13T10:25:56.131Z,20.70
2022-09-13T10:27:01.099Z,20.70
2022-09-13T10:28:06.720Z,20.70
2022-09-13T10:29:14.926Z,20.80
2022-09-13T10:30:33.172Z,20.80
2022-09-13T10:31:38.421Z,20.90
2022-09-13T10:32:40.642Z,20.90
2022-09-13T10:33:58.660Z,20.90
2022-09-13T10:35:10.905Z,21.00
2022-09-13T10:36:29.507Z,20.90
2022-09-13T10:37:42.805Z,21.00
2022-09-13T10:38:52.667Z,21.00
2022-09-13T10:40:04.414Z,21.00
2022-09-13T10:41:09.478Z,20.90
2022-09-13T10:42:21.092Z,20.90
2022-09-13T10:43:24.990Z,20.90
2022-09-13T10:44:34.763Z,20.90
2022-09-13T10:45:38.619Z,20.90
2022-09-13T10:46:42.522Z,20.90
2022-09-13T10:47:47.867Z,20.90
2022-09-13T10:48:55.965Z,20.90
2022-09-13T10:50:00.344Z,21.00
2022-09-13T10:51:06.290Z,20.90
2022-09-13T10:52:25.587Z,20.90
2022-09-13T10:53:34.845Z,20.90
2022-09-13T10:54:37.150Z,20.90
2022-09-13T10:55:40.918Z,20.90
2022-09-13T10:56:43.971Z,20.90
2022-09-13T10:57:50.324Z,20.90
2022-09-13T10:59:17.691Z,20.90
2022-09-13T11:00:21.689Z,20.90
2022-09-13T11:01:42.735Z,20.90
2022-09-13T11:03:01.238Z,21.00
2022-09-13T11:04:43.498Z,21.10
2022-09-13T11:05:51.407Z,21.10
2022-09-13T11:07:03.940Z,21.20
2022-09-13T11:08:18.238Z,21.20
2022-09-13T11:09:26.718Z,21.20
2022-09-13T11:10:37.432Z,21.20
2022-09-13T11:11:47.565Z,21.10
2022-09-13T11:13:01.155Z,21.10
2022-09-13T11:14:19.331Z,21.00
2022-09-13T11:15:32.684Z,20.90
2022-09-13T11:16:46.051Z,20.80
2022-09-13T11:18:12.036Z,20.80
2022-09-13T11:19:45.316Z,20.70
2022-09-13T11:20:59.210Z,20.60
2022-09-13T11:22:20.373Z,20.60
2022-09-13T11:23:59.555Z,20.60
2022-09-13T11:25:13.565Z,20.50
2022-09-13T11:26:34.997Z,20.40
2022-09-13T11:27:48.892Z,20.40
2022-09-13T11:29:04.952Z,20.30
2022-09-13T11:30:15.798Z,20.30
2022-09-13T11:31:33.621Z,20.20
2022-09-13T11:32:51.036Z,20.20
2022-09-13T11:34:06.159Z,20.10
2022-09-13T11:35:22.999Z,20.00
2022-09-13T11:36:44.256Z,19.90
2022-09-13T11:37:57.516Z,19.80
2022-09-13T11:39:13.560Z,19.70
2022-09-13T11:40:30.873Z,19.60
2022-09-13T11:41:44.301Z,19.50
2022-09-13T11:42:55.360Z,19.40
2022-09-13T11:44:29.434Z,19.30
2022-09-13T11:45:39.254Z,19.20
2022-09-13T11:46:51.923Z,19.20
2022-09-13T11:48:15.667Z,19.10
2022-09-13T11:49:47.610Z,19.00
2022-09-13T11:50:58.995Z,19.00
2022-09-13T11:52:12.811Z,18.90
2022-09-13T11:53:32.015Z,18.90
2022-09-13T11:54:47.881Z,18.80
2022-09-13T11:55:56.823Z,18.70
2022-09-13T11:57:05.515Z,18.60
2022-09-13T11:58:14.475Z,18.60
2022-09-13T11:59:29.173Z,18.60
2022-09-13T12:00:37.667Z,18.60
2022-09-13T12:01:47.801Z,18.60
2022-09-13T12:02:58.205Z,18.60
2022-09-13T12:04:05.138Z,18.60
2022-09-13T12:05:24.142Z,18.60
2022-09-13T12:06:31.220Z,18.70
2022-09-13T12:07:38.912Z,18.60
2022-09-13T12:08:46.210Z,18.70
2022-09-13T12:09:55.320Z,18.60
2022-09-13T12:11:03.910Z,18.60
2022-09-13T12:12:08.161Z,18.60
2022-09-13T12:13:16.223Z,18.60
2022-09-13T12:14:22.711Z,18.60
2022-09-13T12:15:36.054Z,18.70
2022-09-13T12:16:42.606Z,18.70
2022-09-13T12:17:48.286Z,18.70
2022-09-13T12:18:54.290Z,18.70
2022-09-13T12:19:59.548Z,18.70
2022-09-13T12:21:09.523Z,18.80
2022-09-13T12:22:13.956Z,18.80
2022-09-13T12:23:19.543Z,18.80
2022-09-13T12:24:29.418Z,18.80
2022-09-13T12:25:38.544Z,18.80
2022-09-13T12:26:46.146Z,18.90
2022-09-13T12:27:56.880Z,18.90
2022-09-13T12:29:03.696Z,19.00
2022-09-13T12:30:15.559Z,18.90
2022-09-13T12:31:23.512Z,18.90
2022-09-13T12:32:26.975Z,18.90
2022-09-13T12:33:30.856Z,18.90
2022-09-13T12:34:42.100Z,18.80
2022-09-13T12:35:55.027Z,18.80
2022-09-13T12:37:19.018Z,18.80
2022-09-13T12:38:36.882Z,18.90
2022-09-13T12:39:54.893Z,18.90
2022-09-13T12:41:21.212Z,18.90
2022-09-13T12:42:46.909Z,18.90
2022-09-13T12:44:30.510Z,19.00
2022-09-13T12:46:04.465Z,19.10
2022-09-13T12:47:31.270Z,19.10
2022-09-13T12:48:55.037Z,19.10
2022-09-13T12:50:41.800Z,19.10
2022-09-13T12:52:02.796Z,19.00
2022-09-13T12:53:17.694Z,18.90
2022-09-13T12:54:40.146Z,18.90
2022-09-13T12:56:01.264Z,18.90
2022-09-13T12:57:31.641Z,18.90
2022-09-13T12:58:56.909Z,18.80
2022-09-13T13:00:18.988Z,18.90
2022-09-13T13:01:25.615Z,18.90
2022-09-13T13:02:33.044Z,18.90
2022-09-13T13:03:43.017Z,18.90
2022-09-13T13:04:54.355Z,18.90
2022-09-13T13:06:11.191Z,18.90
2022-09-13T13:07:22.667Z,19.00
2022-09-13T13:08:31.108Z,19.20
2022-09-13T13:09:41.041Z,19.20
2022-09-13T13:10:44.161Z,19.20
2022-09-13T13:11:48.421Z,19.20
2022-09-13T13:12:51.780Z,19.20
2022-09-13T13:13:57.030Z,19.30
2022-09-13T13:15:01.490Z,19.30
2022-09-13T13:16:24.156Z,19.30
2022-09-13T13:17:39.877Z,19.30
2022-09-13T13:18:46.188Z,19.30
2022-09-13T13:19:49.267Z,19.30
2022-09-13T13:21:33.027Z,19.40
2022-09-13T13:23:03.071Z,19.40
2022-09-13T13:24:40.422Z,19.50
2022-09-13T13:26:01.145Z,19.60
2022-09-13T13:27:36.047Z,19.60
2022-09-13T13:29:17.215Z,19.80
2022-09-13T13:30:50.047Z,19.90
2022-09-13T13:32:13.545Z,20.00
2022-09-13T13:33:18.573Z,20.00
2022-09-13T13:34:36.662Z,20.10
2022-09-13T13:35:38.731Z,20.10
2022-09-13T13:36:48.981Z,20.10
2022-09-13T13:37:59.916Z,20.10
2022-09-13T13:39:09.348Z,20.10
2022-09-13T13:40:22.013Z,20.10
2022-09-13T13:41:53.431Z,20.10
2022-09-13T13:43:34.010Z,20.00
2022-09-13T13:45:22.724Z,19.90
2022-09-13T13:46:27.933Z,19.80
2022-09-13T13:48:12.129Z,19.70
2022-09-13T13:49:46.268Z,19.70
2022-09-13T13:51:21.461Z,19.70
2022-09-13T13:52:38.127Z,19.70
2022-09-13T13:53:45.261Z,19.70
2022-09-13T13:55:02.141Z,19.60
2022-09-13T13:56:18.371Z,19.60
2022-09-13T13:57:26.605Z,19.50
2022-09-13T13:58:45.856Z,19.50
2022-09-13T13:59:50.762Z,19.60
2022-09-13T14:00:54.627Z,19.60
2022-09-13T14:02:01.689Z,19.60
2022-09-13T14:03:17.025Z,19.60
2022-09-13T14:04:48.741Z,19.60
2022-09-13T14:05:58.807Z,19.70
2022-09-13T14:07:19.574Z,19.80
2022-09-13T14:08:35.709Z,19.80
2022-09-13T14:09:46.751Z,19.90
2022-09-13T14:10:59.540Z,19.90
2022-09-13T14:12:18.307Z,19.90
2022-09-13T14:13:36.655Z,19.90
2022-09-13T14:14:57.787Z,19.90
2022-09-13T14:16:11.207Z,19.90
2022-09-13T14:17:57.249Z,20.00
2022-09-13T14:19:13.309Z,20.10
2022-09-13T14:20:18.258Z,20.10
2022-09-13T14:21:24.833Z,20.20
2022-09-13T14:22:28.097Z,20.30
2022-09-13T14:23:33.332Z,20.30
2022-09-13T14:24:37.440Z,20.30
2022-09-13T14:25:40.595Z,20.30
2022-09-13T14:26:42.838Z,20.30
2022-09-13T14:27:47.121Z,20.20
2022-09-13T14:28:49.188Z,20.20
2022-09-13T14:29:54.743Z,20.20
2022-09-13T14:30:58.734Z,20.20
2022-09-13T14:32:05.904Z,20.20
2022-09-13T14:33:23.074Z,20.30
2022-09-13T14:34:31.003Z,20.30
2022-09-13T14:35:36.843Z,20.30
2022-09-13T14:36:39.062Z,20.20
2022-09-13T14:37:42.243Z,20.20
2022-09-13T14:38:54.837Z,20.20
2022-09-13T14:40:01.566Z,20.20
2022-09-13T14:41:14.149Z,20.20
2022-09-13T14:42:17.019Z,20.20
2022-09-13T14:43:21.065Z,20.20